Aérodrome :
LOGIN :

S'inscrire | Disclaimer

   EN    FR    IT 

 










Légende :    VFR   VFR Marginal   IFR   IFR Intensif   IFR Très Intensif
Visi : 
Plafond : 
>= 8 km
>= 3000ft
5 à 8 km
1000 à 3000 ft
1500m à 5 km
500 à 1000 ft
800 à 1500m
200 à 500 ft
< 800m
< 200 ft
Symboles :   Orages  Brouillard  Fortes neiges  Fortes précipitations  Vent > 20 kt
SIGMETs :   Divers  Orages  Givrage  Turbulence  Onde Orograph.  Cendres Volcan.







- Altitude de l'aérodrome : 529 ft
- Code IATA : CHR
- Voir les cartes d'approche


LFLX - Chateauroux

DERNIER METAR :
  • 232130Z AUTO 22011KT 9999 FEW009 OVC034 11/10 Q1027 TEMPO 1200 BR BKN003

METARs EXPIRÉS :
  • 232100Z AUTO 22011KT 9999 FEW008 OVC035 11/10 Q1027 TEMPO 1200 BR BKN003
  • 232030Z AUTO 22011KT 9999 SCT007 OVC039 11/10 Q1027 TEMPO 1200 BR BKN003
  • 232000Z AUTO 22010KT 9999 SCT008 OVC041 11/10 Q1027 TEMPO 1200 BR BKN003
  • 231930Z AUTO 22009KT 9999 OVC008 10/10 Q1027 TEMPO 1200 BR BKN003
  • 231900Z AUTO 22009KT 9999 OVC007 10/10 Q1027 TEMPO 1200 BR BKN003

TAF TAF LFLX
Valide du 23 à 18h jusqu'au 25 à 00h UTC


231700Z 2318/2424 22010KT 4000 BR BKN012
TEMPO 2318/2422 8000 BKN020
TEMPO 2318/2324 1200 BR BKN003
PROB40
TEMPO 2318/2324 1200 BR BKN003
BECMG 2400/2403 BKN020
PROB30
TEMPO 2408/2410 BKN008
TEMPO 2410/2418 22015G25KT SCT020
Pas de NOTAMs connus pour ce terrain.



MET'MAP, la Météo Aéronautique d'un coup d'oeil ! - Copyright ORBIFLY Décembre 2007 - Disclaimer

ORBIFLY MET'MAP TEAM :

Programmation & Développement : Alexandra Zaïnal
Conception & Développement : Baudouin d'Aumeries
Co-Programmation & Développement : Marc-Olivier Méhu
Soutien technique & logistique : Manuel Goepfert

Contact : metmap@orbifly.com




SOURCES & CREDITS :

   NOAA